»·PEaware :: UAL21 KPDX-KSLC

UAL21 :: KPDX-KSLC

FLIGHT INFORMATION

Flight Status: Arrived
Operator:
United Airlines
More flights by this operator :: More flights under this callsign
Pilot: Ben F. (13029)
Aircraft: AIRBUS A320
(A320)
More flights by this aircraft type
Origin: KPDX Portland Intl
United States
Destination: KSLC Salt Lake City Intl
United States
More flights between these airports :: More routes between these airports
Route: WHAMY4 IMB J15 BOI BYI SKEES5
File this flight plan on PilotEdge
Remarks: PBN / A1B1C1D1O1S1 DOF / 180716 REG / N320SB EET / KZLC0030 OPR / UAL PER / C RMK / TCAS SIMBRIEF
Altitude:
(Current/Filed)
37,000ft
Speed:
(Current/Filed)
449kts
Departed: 16-Jul-18 08:48 AM
Arrived: 16-Jul-18 10:15 AM
Distance/Time
Traveled:
546nm/1:26
Distance/Time
To Go:
Arrived

Flight Plot

Page will automatically refresh every two minutes.

Flight plan parsing failed; only flown route is shown


Map Options




Map Legend


Flown Route
Filed Route
Departure Airport
Arrival Airport
Navaid (VOR, NDB)
Fix

Horizontal Profiles

Position Reports

Time Latitude Longitude Heading Altitude Ground
Speed
16-Jul-18 08:22 45.589848 -122.590567 225 37ft 0kts
16-Jul-18 08:23 45.589848 -122.590567 225 37ft 0kts
16-Jul-18 08:24 45.589848 -122.590567 225 37ft 0kts
16-Jul-18 08:25 45.589848 -122.590567 225 37ft 0kts
16-Jul-18 08:26 45.589848 -122.590567 225 37ft 0kts
16-Jul-18 08:27 45.589848 -122.590567 225 37ft 0kts
16-Jul-18 08:28 45.589848 -122.590567 225 37ft 0kts
16-Jul-18 08:29 45.589848 -122.590567 225 37ft 0kts
16-Jul-18 08:30 45.589848 -122.590567 225 37ft 0kts
16-Jul-18 08:31 45.589848 -122.590567 225 37ft 0kts
16-Jul-18 08:32 45.589848 -122.590567 225 37ft 0kts
16-Jul-18 08:33 45.589848 -122.590567 225 37ft 0kts
16-Jul-18 08:34 45.589848 -122.590567 225 37ft 0kts
16-Jul-18 08:35 45.589848 -122.590567 225 37ft 0kts
16-Jul-18 08:36 45.589848 -122.590567 225 37ft 0kts
16-Jul-18 08:37 45.589848 -122.590567 225 37ft 0kts
16-Jul-18 08:38 45.589848 -122.590567 225 37ft 0kts
16-Jul-18 08:39 45.589848 -122.590567 225 37ft 0kts
16-Jul-18 08:40 45.589848 -122.590567 225 37ft 0kts
16-Jul-18 08:41 45.590160 -122.590117 224 37ft 2kts
16-Jul-18 08:42 45.590608 -122.590232 113 37ft 1kts
16-Jul-18 08:43 45.590625 -122.590287 116 37ft 0kts
16-Jul-18 08:44 45.589519 -122.587245 89 37ft 15kts
16-Jul-18 08:45 45.588541 -122.582771 118 37ft 19kts
16-Jul-18 08:46 45.584402 -122.572112 119 37ft 35kts
16-Jul-18 08:47 45.582749 -122.567574 77 37ft 0kts
16-Jul-18 08:48 45.584088 -122.568319 300 37ft 18kts
16-Jul-18 08:49 45.599441 -122.606483 301 1029ft 158kts
16-Jul-18 08:50 45.616956 -122.670970 293 2502ft 231kts
16-Jul-18 08:51 45.652285 -122.758750 300 5704ft 268kts
16-Jul-18 08:52 45.662895 -122.859402 254 9278ft 281kts
16-Jul-18 08:53 45.602628 -122.926172 168 10471ft 364kts
16-Jul-18 08:54 45.525471 -122.829352 119 13433ft 395kts
16-Jul-18 08:55 45.477570 -122.685944 115 16582ft 410kts
16-Jul-18 08:56 45.430791 -122.536659 115 19388ft 422kts
16-Jul-18 08:57 45.382386 -122.382478 114 21875ft 434kts
16-Jul-18 08:58 45.358411 -122.306375 115 22973ft 440kts
16-Jul-18 09:00 45.234659 -121.902906 110 28136ft 451kts
16-Jul-18 09:01 45.191095 -121.737107 110 30133ft 447kts
16-Jul-18 09:02 45.148858 -121.577009 109 31818ft 444kts
16-Jul-18 09:03 45.104542 -121.410286 108 33183ft 445kts
16-Jul-18 09:04 45.060323 -121.244762 109 34038ft 454kts
16-Jul-18 09:05 45.016402 -121.081328 112 35551ft 443kts
16-Jul-18 09:06 44.971611 -120.916527 113 35959ft 455kts
16-Jul-18 09:07 44.925790 -120.748779 112 36698ft 458kts
16-Jul-18 09:08 44.881925 -120.582955 112 37008ft 455kts
16-Jul-18 09:09 44.837419 -120.414606 112 37056ft 458kts
16-Jul-18 09:10 44.792853 -120.246930 112 37092ft 459kts
16-Jul-18 09:11 44.748073 -120.079746 112 37101ft 458kts
16-Jul-18 09:12 44.702917 -119.912347 112 37103ft 458kts
16-Jul-18 09:13 44.657804 -119.746266 112 37100ft 458kts
16-Jul-18 09:14 44.610303 -119.580928 113 37101ft 458kts
16-Jul-18 09:15 44.561960 -119.415867 114 37101ft 458kts
16-Jul-18 09:16 44.513537 -119.251471 114 37100ft 457kts
16-Jul-18 09:17 44.464849 -119.087373 114 37101ft 457kts
16-Jul-18 09:18 44.415708 -118.922805 115 37102ft 460kts
16-Jul-18 09:19 44.366125 -118.757867 115 37102ft 463kts
16-Jul-18 09:20 44.316212 -118.592917 115 37102ft 462kts
16-Jul-18 09:21 44.266047 -118.428176 116 37101ft 462kts
16-Jul-18 09:22 44.217260 -118.268837 116 37094ft 461kts
16-Jul-18 09:23 44.166632 -118.104640 116 37104ft 463kts
16-Jul-18 09:24 44.115717 -117.940571 116 37094ft 462kts
16-Jul-18 09:25 44.064551 -117.776736 116 37044ft 462kts
16-Jul-18 09:26 44.013237 -117.613452 116 37012ft 462kts
16-Jul-18 09:27 43.961586 -117.450128 116 37009ft 462kts
16-Jul-18 09:28 43.909868 -117.287490 117 37007ft 461kts
16-Jul-18 09:29 43.857790 -117.125205 117 37009ft 462kts
16-Jul-18 09:30 43.805713 -116.963575 117 37011ft 464kts
16-Jul-18 09:31 43.752980 -116.800907 118 37016ft 465kts
16-Jul-18 09:32 43.699914 -116.638200 118 37021ft 465kts
16-Jul-18 09:33 43.646796 -116.476326 118 37021ft 465kts
16-Jul-18 09:34 43.593373 -116.314445 118 37022ft 464kts
16-Jul-18 09:35 43.538066 -116.154667 124 37031ft 461kts
16-Jul-18 09:36 43.475722 -116.000742 123 37032ft 461kts
16-Jul-18 09:37 43.413177 -115.846398 123 37042ft 462kts
16-Jul-18 09:38 43.350706 -115.693070 123 37046ft 461kts
16-Jul-18 09:39 43.288141 -115.540325 123 37048ft 461kts
16-Jul-18 09:40 43.225071 -115.387164 123 37048ft 462kts
16-Jul-18 09:41 43.162236 -115.235234 124 37046ft 461kts
16-Jul-18 09:42 43.098708 -115.082576 124 37077ft 464kts
16-Jul-18 09:43 43.034365 -114.928771 124 37113ft 469kts
16-Jul-18 09:44 42.969714 -114.775044 124 37114ft 468kts
16-Jul-18 09:45 42.904779 -114.621455 125 37114ft 468kts
16-Jul-18 09:46 42.839625 -114.468488 125 37120ft 468kts
16-Jul-18 09:47 42.774470 -114.315962 126 37114ft 468kts
16-Jul-18 09:48 42.709334 -114.164192 126 37112ft 467kts
16-Jul-18 09:49 42.643730 -114.012222 126 37116ft 468kts
16-Jul-18 09:50 42.576025 -113.862643 137 37113ft 458kts
16-Jul-18 09:51 42.487095 -113.741018 141 37114ft 454kts
16-Jul-18 09:52 42.397552 -113.621230 141 37118ft 455kts
16-Jul-18 09:53 42.307454 -113.501337 141 37119ft 455kts
16-Jul-18 09:54 42.217686 -113.383231 141 36708ft 449kts
16-Jul-18 09:55 42.127637 -113.264890 142 33941ft 458kts
16-Jul-18 09:56 42.036922 -113.146211 141 31489ft 454kts
16-Jul-18 09:57 41.947970 -113.030349 141 29481ft 439kts
16-Jul-18 09:58 41.866425 -112.923501 141 27535ft 428kts
16-Jul-18 09:59 41.782699 -112.813995 140 25578ft 415kts
16-Jul-18 10:00 41.693348 -112.697575 139 22889ft 465kts
16-Jul-18 10:01 41.603967 -112.582425 138 19916ft 434kts
16-Jul-18 10:02 41.517615 -112.476611 147 16941ft 411kts
16-Jul-18 10:03 41.435904 -112.376517 133 14450ft 382kts
16-Jul-18 10:04 41.370580 -112.280286 133 13020ft 366kts
16-Jul-18 10:05 41.306999 -112.186634 133 11207ft 335kts
16-Jul-18 10:06 41.243731 -112.094413 133 11029ft 303kts
16-Jul-18 10:07 41.192090 -112.025492 161 11040ft 234kts
16-Jul-18 10:08 41.133049 -112.016571 175 10993ft 207kts
16-Jul-18 10:09 41.078148 -112.008749 175 9737ft 193kts
16-Jul-18 10:10 41.025577 -112.002368 175 8639ft 188kts
16-Jul-18 10:11 40.974116 -111.996328 175 7567ft 183kts
16-Jul-18 10:12 40.923982 -111.990486 174 6557ft 180kts
16-Jul-18 10:13 40.878955 -111.985269 174 5658ft 144kts
16-Jul-18 10:14 40.838869 -111.980373 173 4901ft 144kts
16-Jul-18 10:15 40.800648 -111.976116 172 4235ft 90kts
16-Jul-18 10:16 40.793151 -111.975324 179 4235ft 20kts
16-Jul-18 10:17 40.789959 -111.976628 202 4235ft 12kts
16-Jul-18 10:18 40.786869 -111.977441 270 4235ft 0kts
16-Jul-18 10:19 40.787019 -111.977903 303 4235ft 0kts
16-Jul-18 10:20 40.787019 -111.977902 303 4235ft 0kts
16-Jul-18 10:21 40.787019 -111.977902 303 4235ft 0kts
16-Jul-18 10:22 40.787019 -111.977902 303 4235ft 0kts
16-Jul-18 10:23 40.787019 -111.977902 303 4235ft 0kts
16-Jul-18 10:24 40.787019 -111.977902 303 4235ft 0kts
16-Jul-18 10:25 40.787019 -111.977902 303 4235ft 0kts
16-Jul-18 10:26 40.787019 -111.977902 303 4235ft 0kts
16-Jul-18 10:27 40.787019 -111.977902 303 4235ft 0kts
16-Jul-18 10:28 40.787019 -111.977902 303 4235ft 0kts
16-Jul-18 10:29 40.787019 -111.977902 303 4235ft 0kts
16-Jul-18 10:30 40.787019 -111.977902 303 4235ft 0kts

Navigation Log

Ident Type
Flight plan parsing failed, navigation log unavailable